createdAt,value
2023-01-21T00:00:30.509Z,9.40
2023-01-21T00:01:30.489Z,9.80
2023-01-21T00:02:30.532Z,9.40
2023-01-21T00:03:30.520Z,9.20
2023-01-21T00:04:30.472Z,9.40
2023-01-21T00:05:30.456Z,9.70
2023-01-21T00:06:30.425Z,9.60
2023-01-21T00:07:30.411Z,9.10
2023-01-21T00:08:30.432Z,10.40
2023-01-21T00:09:30.390Z,11.00
2023-01-21T00:10:30.401Z,11.30
2023-01-21T00:11:30.400Z,10.40
2023-01-21T00:12:30.358Z,10.20
2023-01-21T00:13:30.352Z,10.10
2023-01-21T00:14:30.339Z,10.40
2023-01-21T00:15:30.400Z,10.90
2023-01-21T00:16:30.341Z,11.20
2023-01-21T00:17:30.312Z,10.80
2023-01-21T00:18:30.359Z,10.80
2023-01-21T00:19:30.281Z,11.10
2023-01-21T00:20:30.274Z,11.40
2023-01-21T00:21:30.302Z,12.20
2023-01-21T00:22:30.250Z,14.20
2023-01-21T00:23:30.252Z,13.80
2023-01-21T00:24:30.220Z,14.60
2023-01-21T00:25:30.210Z,15.40
2023-01-21T00:26:30.191Z,14.50
2023-01-21T00:27:30.211Z,14.80
2023-01-21T00:28:30.304Z,15.20
2023-01-21T00:29:30.163Z,14.30
2023-01-21T00:30:30.292Z,16.00
2023-01-21T00:31:30.178Z,15.50
2023-01-21T00:32:30.125Z,14.00
2023-01-21T00:33:30.175Z,14.60
2023-01-21T00:34:30.122Z,14.70
2023-01-21T00:35:30.093Z,14.70
2023-01-21T00:36:30.091Z,14.70
2023-01-21T00:37:30.065Z,15.00
2023-01-21T00:38:30.086Z,15.00
2023-01-21T00:39:30.054Z,15.30
2023-01-21T00:40:30.033Z,15.10
2023-01-21T00:41:30.033Z,13.40
2023-01-21T00:42:30.014Z,13.80
2023-01-21T00:43:30.008Z,14.30
2023-01-21T00:44:30.019Z,14.10
2023-01-21T00:45:29.997Z,14.10
2023-01-21T00:46:30.010Z,13.10
2023-01-21T00:47:29.973Z,11.80
2023-01-21T00:48:29.971Z,13.00
2023-01-21T00:49:29.955Z,13.70
2023-01-21T00:50:29.929Z,13.80
2023-01-21T00:51:29.928Z,13.20
2023-01-21T00:52:29.896Z,14.50
2023-01-21T00:53:29.899Z,13.90
2023-01-21T00:54:29.873Z,14.10
2023-01-21T00:55:29.928Z,13.30
2023-01-21T00:56:29.874Z,13.00
2023-01-21T00:57:29.839Z,13.90
2023-01-21T00:58:29.834Z,13.20
2023-01-21T00:59:29.825Z,13.30
2023-01-21T01:00:29.812Z,13.70
2023-01-21T01:01:29.875Z,13.30
2023-01-21T01:02:29.788Z,12.70
2023-01-21T01:03:29.793Z,13.10
2023-01-21T01:04:29.753Z,13.30
2023-01-21T01:05:29.756Z,13.50
2023-01-21T01:06:29.753Z,13.40
2023-01-21T01:07:29.749Z,12.80
2023-01-21T01:08:29.718Z,12.70
2023-01-21T01:09:29.693Z,13.20
2023-01-21T01:10:29.702Z,12.30
2023-01-21T01:11:29.675Z,13.40
2023-01-21T01:12:29.673Z,12.70
2023-01-21T01:13:29.697Z,12.50
2023-01-21T01:14:29.633Z,12.70
2023-01-21T01:15:29.623Z,12.50
2023-01-21T01:16:29.626Z,12.80
2023-01-21T01:17:29.603Z,12.50
2023-01-21T01:18:29.613Z,12.90
2023-01-21T01:19:29.613Z,13.90
2023-01-21T01:20:29.563Z,13.50
2023-01-21T01:21:29.568Z,12.80
2023-01-21T01:22:29.570Z,13.30
2023-01-21T01:23:29.574Z,13.00
2023-01-21T01:24:29.566Z,12.40
2023-01-21T01:25:29.520Z,12.50
2023-01-21T01:26:29.512Z,12.90
2023-01-21T01:27:29.484Z,14.00
2023-01-21T01:28:29.474Z,13.70
2023-01-21T01:29:29.465Z,13.10
2023-01-21T01:30:29.496Z,12.60
2023-01-21T01:31:29.495Z,13.20
2023-01-21T01:32:29.434Z,12.00
2023-01-21T01:33:29.430Z,12.10
2023-01-21T01:34:29.414Z,12.60
2023-01-21T01:35:29.400Z,11.90
2023-01-21T01:36:29.404Z,13.20
2023-01-21T01:37:29.376Z,12.80
2023-01-21T01:38:29.429Z,12.50
2023-01-21T01:39:29.353Z,12.90
2023-01-21T01:40:29.335Z,12.20
2023-01-21T01:41:29.388Z,12.10
2023-01-21T01:42:29.322Z,12.60
2023-01-21T01:43:29.295Z,11.20
2023-01-21T01:44:29.308Z,11.40
2023-01-21T01:45:29.300Z,11.80
2023-01-21T01:46:29.285Z,11.90
2023-01-21T01:47:29.280Z,11.70
2023-01-21T01:48:29.272Z,11.60
2023-01-21T01:49:29.226Z,11.50
2023-01-21T01:50:29.266Z,12.10
2023-01-21T01:51:29.215Z,11.90
2023-01-21T01:52:29.221Z,11.70
2023-01-21T01:53:29.236Z,11.10
2023-01-21T01:54:29.179Z,12.30
2023-01-21T01:55:29.160Z,11.40
2023-01-21T01:56:29.162Z,11.30
2023-01-21T01:57:29.145Z,11.70
2023-01-21T01:58:29.134Z,11.20
2023-01-21T01:59:29.195Z,11.60
2023-01-21T02:00:29.348Z,11.00
2023-01-21T02:01:29.123Z,11.80
2023-01-21T02:02:29.113Z,12.90
2023-01-21T02:03:29.071Z,11.60
2023-01-21T02:04:29.078Z,11.90
2023-01-21T02:05:29.098Z,11.70
2023-01-21T02:06:29.039Z,11.00
2023-01-21T02:07:29.034Z,11.80
2023-01-21T02:08:29.014Z,11.50
2023-01-21T02:09:29.002Z,11.40
2023-01-21T02:10:29.009Z,10.50
2023-01-21T02:11:28.978Z,11.50
2023-01-21T02:12:28.967Z,11.10
2023-01-21T02:13:28.961Z,11.00
2023-01-21T02:14:28.966Z,11.40
2023-01-21T02:15:28.936Z,10.90
2023-01-21T02:16:29.097Z,10.90
2023-01-21T02:17:28.909Z,11.10
2023-01-21T02:18:28.904Z,10.20
2023-01-21T02:19:28.894Z,11.40
2023-01-21T02:20:28.889Z,10.60
2023-01-21T02:21:28.862Z,11.30
2023-01-21T02:22:28.917Z,10.90
2023-01-21T02:23:28.845Z,11.20
2023-01-21T02:24:28.838Z,10.90
2023-01-21T02:25:28.819Z,12.10
2023-01-21T02:26:28.835Z,10.60
2023-01-21T02:27:30.955Z,11.20
2023-01-21T02:28:28.825Z,11.50
2023-01-21T02:29:28.767Z,11.10
2023-01-21T02:30:28.757Z,10.80
2023-01-21T02:31:28.802Z,10.40
2023-01-21T02:32:28.752Z,11.10
2023-01-21T02:33:28.741Z,11.10
2023-01-21T02:34:28.765Z,11.40
2023-01-21T02:35:28.726Z,11.50
2023-01-21T02:36:28.727Z,11.10
2023-01-21T02:37:28.692Z,11.30
2023-01-21T02:38:28.693Z,11.30
2023-01-21T02:39:28.670Z,12.30
2023-01-21T02:40:28.688Z,12.60
2023-01-21T02:41:28.644Z,11.80
2023-01-21T02:42:28.657Z,11.30
2023-01-21T02:43:28.629Z,10.90
2023-01-21T02:44:28.611Z,12.20
2023-01-21T02:45:28.610Z,10.70
2023-01-21T02:46:28.682Z,11.50
2023-01-21T02:47:28.594Z,11.50
2023-01-21T02:48:28.561Z,11.70
2023-01-21T02:49:28.693Z,11.50
2023-01-21T02:50:28.564Z,11.20
2023-01-21T02:51:28.587Z,11.60
2023-01-21T02:52:28.539Z,11.50
2023-01-21T02:53:29.689Z,11.60
2023-01-21T02:54:28.508Z,12.70
2023-01-21T02:55:28.501Z,11.50
2023-01-21T02:56:28.534Z,12.10
2023-01-21T02:57:28.517Z,11.10
2023-01-21T02:58:28.468Z,11.40
2023-01-21T02:59:28.449Z,12.10
2023-01-21T03:00:28.454Z,11.80
2023-01-21T03:01:28.476Z,11.70
2023-01-21T03:02:28.431Z,11.90
2023-01-21T03:03:28.449Z,11.90
2023-01-21T03:04:28.428Z,11.60
2023-01-21T03:05:28.387Z,11.40
2023-01-21T03:06:28.380Z,11.90
2023-01-21T03:07:28.360Z,11.90
2023-01-21T03:08:28.372Z,11.80
2023-01-21T03:09:28.382Z,12.30
2023-01-21T03:10:28.379Z,11.50
2023-01-21T03:11:28.361Z,10.80
2023-01-21T03:12:28.327Z,11.70
2023-01-21T03:13:28.319Z,12.20
2023-01-21T03:14:28.452Z,12.40
2023-01-21T03:15:28.287Z,11.60
2023-01-21T03:16:28.321Z,11.60
2023-01-21T03:17:28.272Z,12.60
2023-01-21T03:18:28.241Z,12.20
2023-01-21T03:19:28.233Z,11.60
2023-01-21T03:20:28.272Z,12.40
2023-01-21T03:21:28.316Z,12.00
2023-01-21T03:22:28.198Z,12.80
2023-01-21T03:23:28.212Z,12.40
2023-01-21T03:24:28.185Z,12.60
2023-01-21T03:25:28.208Z,12.40
2023-01-21T03:26:28.162Z,12.40
2023-01-21T03:27:28.139Z,12.90
2023-01-21T03:28:28.172Z,12.20
2023-01-21T03:29:28.144Z,11.90
2023-01-21T03:30:28.100Z,12.30
2023-01-21T03:31:28.139Z,13.00
2023-01-21T03:32:28.078Z,11.90
2023-01-21T03:33:28.094Z,12.70
2023-01-21T03:34:28.097Z,12.50
2023-01-21T03:35:28.072Z,11.80
2023-01-21T03:36:28.046Z,13.20
2023-01-21T03:37:28.075Z,11.90
2023-01-21T03:38:28.021Z,12.70
2023-01-21T03:39:28.949Z,12.00
2023-01-21T03:40:28.000Z,12.90
2023-01-21T03:41:27.974Z,13.10
2023-01-21T03:42:28.030Z,13.30
2023-01-21T03:43:27.992Z,12.10
2023-01-21T03:44:27.967Z,13.00
2023-01-21T03:45:27.989Z,13.00
2023-01-21T03:46:28.059Z,11.90
2023-01-21T03:47:27.952Z,13.10
2023-01-21T03:48:28.381Z,12.80
2023-01-21T03:49:27.890Z,12.90
2023-01-21T03:50:27.921Z,12.20
2023-01-21T03:51:27.884Z,13.10
2023-01-21T03:52:27.862Z,12.50
2023-01-21T03:53:27.852Z,13.50
2023-01-21T03:54:27.910Z,12.60
2023-01-21T03:55:27.837Z,12.40
2023-01-21T03:56:27.845Z,12.90
2023-01-21T03:57:27.813Z,12.80
2023-01-21T03:58:27.802Z,12.60
2023-01-21T03:59:27.785Z,13.30
2023-01-21T04:00:27.812Z,12.50
2023-01-21T04:01:27.778Z,13.60
2023-01-21T04:02:27.766Z,12.40
2023-01-21T04:03:27.782Z,13.00
2023-01-21T04:04:27.792Z,12.60
2023-01-21T04:05:27.851Z,13.00
2023-01-21T04:06:27.712Z,12.60
2023-01-21T04:07:27.691Z,12.50
2023-01-21T04:08:27.789Z,12.30
2023-01-21T04:09:27.679Z,12.10
2023-01-21T04:10:27.679Z,12.60
2023-01-21T04:11:27.722Z,12.80
2023-01-21T04:12:27.661Z,11.70
2023-01-21T04:13:27.632Z,12.90
2023-01-21T04:14:27.634Z,13.20
2023-01-21T04:15:27.739Z,12.80
2023-01-21T04:16:30.554Z,12.60
2023-01-21T04:17:27.612Z,12.90
2023-01-21T04:18:27.572Z,12.30
2023-01-21T04:19:27.549Z,13.10
2023-01-21T04:20:27.541Z,12.40
2023-01-21T04:21:27.555Z,13.50
2023-01-21T04:22:27.561Z,12.30
2023-01-21T04:23:27.513Z,13.30
2023-01-21T04:24:27.546Z,12.80
2023-01-21T04:25:27.533Z,14.00
2023-01-21T04:26:27.514Z,13.30
2023-01-21T04:27:27.503Z,13.30
2023-01-21T04:28:27.484Z,13.50
2023-01-21T04:29:27.463Z,13.30
2023-01-21T04:30:27.443Z,13.70
2023-01-21T04:31:27.490Z,13.10
2023-01-21T04:32:27.437Z,13.00
2023-01-21T04:33:27.402Z,13.10
2023-01-21T04:34:27.455Z,13.10
2023-01-21T04:35:27.442Z,12.80
2023-01-21T04:36:27.384Z,13.30
2023-01-21T04:37:27.370Z,13.70
2023-01-21T04:38:27.374Z,13.00
2023-01-21T04:39:27.352Z,12.80
2023-01-21T04:40:27.354Z,12.30
2023-01-21T04:41:27.305Z,13.40
2023-01-21T04:42:27.334Z,12.90
2023-01-21T04:43:27.294Z,12.30
2023-01-21T04:44:27.282Z,12.30
2023-01-21T04:45:27.316Z,12.10
2023-01-21T04:46:27.267Z,13.10
2023-01-21T04:47:27.250Z,13.20
2023-01-21T04:48:27.263Z,13.10
2023-01-21T04:49:27.245Z,12.60
2023-01-21T04:50:27.330Z,12.40
2023-01-21T04:51:27.230Z,11.90
2023-01-21T04:52:27.184Z,12.30
2023-01-21T04:53:27.182Z,12.30
2023-01-21T04:54:27.273Z,12.30
2023-01-21T04:55:27.208Z,13.00
2023-01-21T04:56:27.166Z,13.30
2023-01-21T04:57:27.196Z,12.80
2023-01-21T04:58:27.123Z,13.20
2023-01-21T04:59:27.122Z,13.50
2023-01-21T05:00:27.125Z,12.40
2023-01-21T05:01:27.153Z,12.60
2023-01-21T05:02:27.141Z,12.50
2023-01-21T05:03:27.097Z,12.70
2023-01-21T05:04:27.093Z,12.30
2023-01-21T05:05:27.034Z,13.10
2023-01-21T05:06:27.035Z,12.80
2023-01-21T05:07:27.035Z,12.90
2023-01-21T05:08:27.033Z,14.50
2023-01-21T05:09:27.029Z,13.20
2023-01-21T05:10:26.995Z,12.60
2023-01-21T05:11:26.979Z,13.00
2023-01-21T05:12:26.987Z,12.80
2023-01-21T05:13:27.146Z,13.40
2023-01-21T05:14:26.950Z,11.60
2023-01-21T05:15:27.054Z,13.50
2023-01-21T05:16:38.103Z,12.70
2023-01-21T05:17:26.924Z,13.10
2023-01-21T05:18:26.903Z,13.70
2023-01-21T05:19:26.902Z,13.10
2023-01-21T05:20:26.877Z,13.20
2023-01-21T05:21:26.921Z,14.00
2023-01-21T05:22:26.862Z,13.90
2023-01-21T05:23:26.871Z,13.80
2023-01-21T05:24:26.869Z,13.60
2023-01-21T05:25:26.896Z,13.90
2023-01-21T05:26:26.795Z,12.80
2023-01-21T05:27:26.830Z,12.70
2023-01-21T05:28:26.788Z,13.70
2023-01-21T05:29:26.777Z,13.60
2023-01-21T05:30:26.762Z,13.60
2023-01-21T05:31:26.854Z,14.10
2023-01-21T05:32:26.738Z,12.50
2023-01-21T05:33:26.749Z,13.60
2023-01-21T05:34:26.729Z,13.30
2023-01-21T05:35:26.721Z,13.30
2023-01-21T05:36:26.685Z,13.70
2023-01-21T05:37:26.725Z,13.10
2023-01-21T05:38:26.697Z,12.90
2023-01-21T05:39:26.656Z,13.90
2023-01-21T05:40:26.644Z,13.60
2023-01-21T05:41:26.644Z,13.30
2023-01-21T05:42:26.628Z,13.90
2023-01-21T05:43:26.638Z,12.90
2023-01-21T05:44:26.634Z,14.10
2023-01-21T05:45:26.589Z,13.60
2023-01-21T05:46:26.688Z,12.90
2023-01-21T05:47:26.578Z,13.60
2023-01-21T05:48:26.571Z,12.70
2023-01-21T05:49:26.560Z,12.60
2023-01-21T05:50:26.610Z,12.50
2023-01-21T05:51:26.525Z,13.00
2023-01-21T05:52:26.556Z,12.90
2023-01-21T05:53:26.520Z,12.50
2023-01-21T05:54:26.495Z,13.00
2023-01-21T05:55:26.491Z,13.10
2023-01-21T05:56:26.685Z,12.40
2023-01-21T05:57:26.461Z,12.40
2023-01-21T05:58:26.617Z,12.40
2023-01-21T05:59:26.459Z,13.20
2023-01-21T06:00:26.463Z,12.90
2023-01-21T06:01:26.412Z,13.00
2023-01-21T06:02:26.521Z,13.00
2023-01-21T06:03:26.504Z,12.20
2023-01-21T06:04:26.391Z,12.50
2023-01-21T06:05:26.373Z,12.70
2023-01-21T06:06:26.367Z,12.70
2023-01-21T06:07:26.345Z,14.00
2023-01-21T06:08:26.434Z,12.90
2023-01-21T06:09:26.339Z,12.60
2023-01-21T06:10:26.318Z,11.90
2023-01-21T06:11:26.299Z,12.50
2023-01-21T06:12:26.297Z,12.10
2023-01-21T06:13:26.313Z,12.60
2023-01-21T06:14:26.314Z,12.30
2023-01-21T06:15:26.259Z,12.40
2023-01-21T06:16:26.261Z,12.50
2023-01-21T06:17:26.243Z,12.30
2023-01-21T06:18:26.236Z,11.80
2023-01-21T06:19:26.245Z,12.90
2023-01-21T06:20:26.207Z,12.30
2023-01-21T06:21:26.197Z,14.20
2023-01-21T06:22:26.215Z,13.70
2023-01-21T06:23:26.167Z,13.20
2023-01-21T06:24:26.192Z,14.00
2023-01-21T06:25:26.196Z,18.30
2023-01-21T06:26:27.223Z,16.10
2023-01-21T06:27:26.135Z,12.40
2023-01-21T06:28:26.116Z,12.50
2023-01-21T06:29:26.107Z,12.00
2023-01-21T06:30:26.169Z,12.00
2023-01-21T06:31:26.211Z,12.70
2023-01-21T06:32:26.066Z,13.00
2023-01-21T06:33:26.068Z,13.60
2023-01-21T06:34:26.038Z,13.80
2023-01-21T06:35:26.036Z,14.80
2023-01-21T06:36:26.037Z,13.30
2023-01-21T06:37:26.021Z,21.10
2023-01-21T06:38:26.029Z,14.30
2023-01-21T06:39:25.996Z,12.20
2023-01-21T06:40:25.969Z,13.20
2023-01-21T06:41:26.000Z,13.10
2023-01-21T06:42:25.964Z,13.00
2023-01-21T06:43:25.939Z,13.50
2023-01-21T06:44:26.012Z,13.90
2023-01-21T06:45:25.937Z,14.20
2023-01-21T06:46:25.973Z,13.20
2023-01-21T06:47:25.932Z,12.80
2023-01-21T06:48:25.901Z,13.10
2023-01-21T06:49:25.891Z,14.20
2023-01-21T06:50:25.883Z,15.90
2023-01-21T06:51:25.871Z,14.90
2023-01-21T06:52:25.845Z,14.00
2023-01-21T06:53:25.870Z,13.70
2023-01-21T06:54:26.157Z,31.50
2023-01-21T06:55:25.830Z,15.40
2023-01-21T06:56:25.837Z,28.10
2023-01-21T06:57:25.808Z,36.90
2023-01-21T06:58:25.779Z,27.20
2023-01-21T06:59:25.837Z,25.00
2023-01-21T07:00:25.788Z,21.00
2023-01-21T07:01:25.768Z,14.40
2023-01-21T07:02:25.776Z,16.70
2023-01-21T07:03:25.708Z,18.80
2023-01-21T07:04:25.715Z,14.70
2023-01-21T07:05:25.717Z,14.90
2023-01-21T07:06:25.679Z,13.60
2023-01-21T07:07:25.683Z,14.10
2023-01-21T07:08:25.664Z,14.20
2023-01-21T07:09:25.733Z,13.80
2023-01-21T07:10:25.636Z,14.20
2023-01-21T07:11:25.673Z,12.80
2023-01-21T07:12:25.633Z,13.60
2023-01-21T07:13:25.622Z,14.20
2023-01-21T07:14:25.602Z,15.40
2023-01-21T07:15:25.581Z,13.60
2023-01-21T07:16:25.662Z,13.30
2023-01-21T07:17:25.565Z,13.90
2023-01-21T07:18:25.559Z,12.90
2023-01-21T07:19:28.077Z,14.60
2023-01-21T07:20:25.519Z,14.70
2023-01-21T07:21:25.509Z,17.10
2023-01-21T07:22:25.536Z,13.10
2023-01-21T07:23:25.501Z,14.10
2023-01-21T07:24:25.514Z,13.00
2023-01-21T07:25:25.499Z,14.50
2023-01-21T07:26:25.470Z,14.00
2023-01-21T07:27:25.465Z,13.00
2023-01-21T07:28:25.473Z,12.40
2023-01-21T07:29:25.430Z,12.50
2023-01-21T07:30:25.432Z,13.10
2023-01-21T07:31:25.462Z,13.00
2023-01-21T07:32:25.392Z,12.50
2023-01-21T07:33:25.389Z,12.10
2023-01-21T07:34:25.409Z,12.30
2023-01-21T07:35:25.356Z,11.80
2023-01-21T07:36:25.360Z,11.50
2023-01-21T07:37:25.334Z,11.90
2023-01-21T07:38:25.350Z,11.40
2023-01-21T07:39:25.324Z,11.50
2023-01-21T07:40:25.333Z,11.90
2023-01-21T07:41:25.291Z,12.40
2023-01-21T07:42:25.295Z,10.70
2023-01-21T07:43:25.302Z,12.10
2023-01-21T07:44:25.263Z,12.70
2023-01-21T07:45:25.281Z,13.20
2023-01-21T07:46:25.308Z,12.90
2023-01-21T07:47:25.227Z,12.20
2023-01-21T07:48:25.212Z,13.00
2023-01-21T07:49:25.201Z,11.70
2023-01-21T07:50:25.187Z,11.20
2023-01-21T07:51:25.225Z,11.80
2023-01-21T07:52:25.171Z,11.40
2023-01-21T07:53:25.142Z,12.40
2023-01-21T07:54:25.157Z,11.50
2023-01-21T07:55:25.133Z,12.30
2023-01-21T07:56:25.122Z,11.60
2023-01-21T07:57:25.131Z,11.40
2023-01-21T07:58:25.102Z,11.10
2023-01-21T07:59:25.276Z,11.30
2023-01-21T08:00:25.077Z,10.80
2023-01-21T08:01:25.537Z,11.80
2023-01-21T08:02:25.151Z,11.30
2023-01-21T08:03:25.038Z,10.90
2023-01-21T08:04:25.024Z,11.30
2023-01-21T08:05:25.051Z,11.30
2023-01-21T08:06:25.013Z,11.60
2023-01-21T08:07:24.991Z,12.00
2023-01-21T08:08:25.002Z,11.10
2023-01-21T08:09:24.970Z,11.70
2023-01-21T08:10:24.994Z,13.40
2023-01-21T08:11:24.936Z,13.50
2023-01-21T08:12:27.167Z,12.90
2023-01-21T08:13:24.936Z,12.90
2023-01-21T08:14:24.919Z,11.70
2023-01-21T08:15:24.904Z,10.90
2023-01-21T08:16:24.936Z,11.70
2023-01-21T08:17:24.872Z,15.60
2023-01-21T08:18:24.873Z,16.40
2023-01-21T08:19:24.843Z,17.50
2023-01-21T08:20:24.862Z,14.40
2023-01-21T08:21:24.825Z,13.50
2023-01-21T08:22:24.801Z,13.10
2023-01-21T08:23:24.823Z,12.20
2023-01-21T08:24:24.782Z,11.50
2023-01-21T08:25:24.793Z,11.60
2023-01-21T08:26:25.815Z,11.00
2023-01-21T08:27:24.810Z,11.40
2023-01-21T08:28:24.762Z,11.30
2023-01-21T08:29:25.712Z,10.60
2023-01-21T08:30:24.743Z,10.90
2023-01-21T08:31:24.743Z,10.50
2023-01-21T08:32:24.764Z,11.60
2023-01-21T08:33:24.680Z,10.70
2023-01-21T08:34:24.687Z,10.40
2023-01-21T08:35:24.671Z,11.30
2023-01-21T08:36:25.906Z,10.40
2023-01-21T08:37:24.681Z,10.80
2023-01-21T08:38:24.654Z,10.50
2023-01-21T08:39:33.135Z,10.30
2023-01-21T08:40:24.595Z,10.40
2023-01-21T08:41:24.592Z,10.70
2023-01-21T08:42:24.597Z,11.10
2023-01-21T08:43:24.565Z,10.20
2023-01-21T08:44:24.574Z,10.30
2023-01-21T08:45:24.576Z,10.10
2023-01-21T08:46:24.536Z,10.00
2023-01-21T08:47:24.548Z,10.10
2023-01-21T08:48:24.569Z,9.10
2023-01-21T08:49:24.510Z,8.80
2023-01-21T08:50:24.588Z,9.50
2023-01-21T08:51:24.512Z,8.80
2023-01-21T08:52:24.473Z,7.80
2023-01-21T08:53:24.473Z,7.80
2023-01-21T08:54:24.449Z,8.00
2023-01-21T08:55:24.444Z,7.40
2023-01-21T08:56:24.428Z,7.70
2023-01-21T08:57:24.402Z,6.80
2023-01-21T08:58:24.404Z,7.40
2023-01-21T08:59:24.398Z,7.40
2023-01-21T09:00:24.383Z,7.10
2023-01-21T09:01:24.422Z,6.80
2023-01-21T09:02:24.404Z,6.80
2023-01-21T09:03:24.349Z,7.40
2023-01-21T09:04:24.348Z,7.20
2023-01-21T09:05:24.344Z,7.20
2023-01-21T09:06:24.361Z,7.10
2023-01-21T09:07:24.284Z,7.20
2023-01-21T09:08:24.296Z,7.70
2023-01-21T09:09:24.274Z,7.60
2023-01-21T09:10:24.290Z,7.00
2023-01-21T09:11:24.244Z,7.40
2023-01-21T09:12:24.287Z,7.40
2023-01-21T09:13:24.226Z,7.20
2023-01-21T09:14:24.216Z,6.90
2023-01-21T09:15:24.681Z,6.90
2023-01-21T09:16:30.566Z,7.40
2023-01-21T09:17:24.207Z,7.00
2023-01-21T09:18:24.212Z,7.00
2023-01-21T09:19:24.222Z,7.40
2023-01-21T09:20:24.143Z,7.20
2023-01-21T09:21:24.133Z,7.10
2023-01-21T09:22:24.127Z,7.40
2023-01-21T09:23:24.455Z,6.90
2023-01-21T09:24:24.109Z,7.40
2023-01-21T09:25:24.093Z,7.00
2023-01-21T09:26:24.093Z,7.10
2023-01-21T09:27:24.066Z,7.90
2023-01-21T09:28:24.057Z,7.50
2023-01-21T09:29:24.767Z,7.60
2023-01-21T09:30:24.177Z,7.60
2023-01-21T09:31:24.055Z,7.50
2023-01-21T09:32:24.031Z,8.20
2023-01-21T09:33:24.002Z,9.60
2023-01-21T09:34:24.018Z,10.90
2023-01-21T09:35:23.973Z,12.00
2023-01-21T09:36:23.973Z,8.50
2023-01-21T09:37:23.945Z,15.80
2023-01-21T09:38:23.950Z,8.70
2023-01-21T09:39:23.939Z,9.30
2023-01-21T09:40:23.938Z,8.70
2023-01-21T09:41:24.046Z,8.30
2023-01-21T09:42:23.896Z,10.80
2023-01-21T09:43:23.883Z,8.70
2023-01-21T09:44:23.871Z,12.20
2023-01-21T09:45:23.885Z,34.90
2023-01-21T09:46:23.871Z,26.20
2023-01-21T09:47:23.873Z,62.20
2023-01-21T09:48:23.828Z,19.00
2023-01-21T09:49:24.086Z,11.90
2023-01-21T09:50:23.813Z,9.50
2023-01-21T09:51:23.834Z,9.50
2023-01-21T09:52:23.809Z,11.10
2023-01-21T09:53:23.767Z,13.90
2023-01-21T09:54:23.757Z,12.90
2023-01-21T09:55:23.751Z,10.70
2023-01-21T09:56:23.755Z,10.70
2023-01-21T09:57:23.758Z,11.10
2023-01-21T09:58:23.726Z,11.30
2023-01-21T09:59:23.710Z,11.10
2023-01-21T10:00:23.703Z,10.50
2023-01-21T10:01:23.759Z,10.90
2023-01-21T10:02:23.681Z,10.20
2023-01-21T10:03:23.890Z,10.20
2023-01-21T10:04:23.731Z,11.70
2023-01-21T10:05:23.629Z,10.40
2023-01-21T10:06:23.677Z,11.10
2023-01-21T10:07:23.659Z,11.00
2023-01-21T10:08:23.629Z,11.20
2023-01-21T10:09:23.620Z,11.00
2023-01-21T10:10:23.640Z,10.60
2023-01-21T10:11:23.561Z,11.10
2023-01-21T10:12:23.598Z,10.40
2023-01-21T10:13:23.587Z,10.70
2023-01-21T10:14:23.534Z,10.90
2023-01-21T10:15:23.538Z,11.00
2023-01-21T10:16:23.518Z,11.00
2023-01-21T10:17:23.506Z,10.60
2023-01-21T10:18:23.481Z,9.90
2023-01-21T10:19:23.501Z,10.30
2023-01-21T10:20:23.522Z,9.80
2023-01-21T10:21:23.478Z,10.50
2023-01-21T10:22:23.442Z,10.70
2023-01-21T10:23:23.442Z,10.30
2023-01-21T10:24:23.421Z,11.10
2023-01-21T10:25:23.422Z,10.70
2023-01-21T10:26:23.421Z,9.90
2023-01-21T10:27:23.406Z,9.80
2023-01-21T10:28:23.417Z,9.00
2023-01-21T10:29:23.412Z,9.30
2023-01-21T10:30:23.376Z,10.10
2023-01-21T10:31:23.453Z,9.30
2023-01-21T10:32:23.349Z,8.60
2023-01-21T10:33:23.313Z,9.10
2023-01-21T10:34:23.305Z,8.20
2023-01-21T10:35:23.310Z,8.30
2023-01-21T10:36:23.342Z,8.50
2023-01-21T10:37:23.265Z,8.30
2023-01-21T10:38:23.300Z,7.90
2023-01-21T10:39:23.259Z,7.90
2023-01-21T10:40:23.251Z,7.90
2023-01-21T10:41:23.220Z,7.30
2023-01-21T10:42:23.219Z,7.90
2023-01-21T10:43:23.301Z,8.10
2023-01-21T10:44:23.312Z,7.20
2023-01-21T10:45:23.171Z,8.50
2023-01-21T10:46:23.245Z,7.20
2023-01-21T10:47:23.162Z,7.30
2023-01-21T10:48:23.144Z,6.50
2023-01-21T10:49:23.174Z,7.50
2023-01-21T10:50:23.209Z,6.00
2023-01-21T10:51:23.154Z,6.90
2023-01-21T10:52:23.101Z,6.10
2023-01-21T10:53:23.082Z,6.70
2023-01-21T10:54:23.071Z,6.10
2023-01-21T10:55:23.091Z,5.80
2023-01-21T10:56:23.082Z,6.70
2023-01-21T10:57:23.173Z,6.30
2023-01-21T10:58:23.026Z,5.80
2023-01-21T10:59:23.024Z,6.50
2023-01-21T11:00:23.016Z,5.70
2023-01-21T11:01:23.120Z,5.90
2023-01-21T11:02:23.044Z,5.60
2023-01-21T11:03:22.994Z,6.50
2023-01-21T11:04:22.957Z,5.80
2023-01-21T11:05:22.971Z,6.30
2023-01-21T11:06:22.926Z,6.50
2023-01-21T11:07:22.945Z,5.50
2023-01-21T11:08:22.945Z,6.20
2023-01-21T11:09:22.895Z,5.90
2023-01-21T11:10:22.901Z,6.00
2023-01-21T11:11:22.872Z,6.00
2023-01-21T11:12:22.883Z,7.30
2023-01-21T11:13:22.884Z,6.30
2023-01-21T11:14:22.832Z,7.00
2023-01-21T11:15:22.823Z,6.40
2023-01-21T11:16:22.812Z,6.30
2023-01-21T11:17:22.813Z,7.00
2023-01-21T11:18:22.821Z,6.00
2023-01-21T11:19:22.799Z,7.60
2023-01-21T11:20:22.795Z,7.00
2023-01-21T11:21:22.775Z,6.10
2023-01-21T11:22:22.846Z,5.90
2023-01-21T11:23:22.740Z,5.00
2023-01-21T11:24:22.745Z,5.60
2023-01-21T11:25:22.717Z,5.40
2023-01-21T11:26:22.905Z,6.00
2023-01-21T11:27:22.715Z,5.70
2023-01-21T11:28:22.694Z,5.70
2023-01-21T11:29:22.694Z,6.10
2023-01-21T11:30:44.212Z,5.90
2023-01-21T11:31:23.730Z,5.50
2023-01-21T11:32:22.723Z,5.60
2023-01-21T11:33:22.626Z,5.40
2023-01-21T11:34:22.623Z,5.80
2023-01-21T11:35:22.667Z,5.30
2023-01-21T11:36:22.628Z,5.20
2023-01-21T11:37:22.611Z,5.40
2023-01-21T11:38:22.566Z,5.70
2023-01-21T11:39:22.580Z,5.30
2023-01-21T11:40:23.023Z,4.90
2023-01-21T11:41:22.552Z,4.90
2023-01-21T11:42:22.601Z,5.70
2023-01-21T11:43:22.518Z,5.30
2023-01-21T11:44:22.501Z,4.90
2023-01-21T11:45:22.484Z,4.70
2023-01-21T11:46:22.570Z,4.70
2023-01-21T11:47:22.474Z,4.30
2023-01-21T11:48:22.448Z,4.40
2023-01-21T11:49:22.444Z,5.30
2023-01-21T11:50:22.437Z,4.00
2023-01-21T11:51:22.482Z,4.50
2023-01-21T11:52:22.415Z,4.70
2023-01-21T11:53:22.488Z,5.00
2023-01-21T11:54:22.390Z,4.90
2023-01-21T11:55:22.375Z,4.90
2023-01-21T11:56:22.375Z,4.40
2023-01-21T11:57:22.367Z,4.90
2023-01-21T11:58:22.422Z,5.40
2023-01-21T11:59:22.353Z,5.30
2023-01-21T12:00:22.304Z,4.30
2023-01-21T12:01:22.306Z,4.90
2023-01-21T12:02:22.390Z,5.20
2023-01-21T12:03:22.314Z,4.80
2023-01-21T12:04:22.287Z,4.80
2023-01-21T12:05:22.282Z,4.60
2023-01-21T12:06:22.249Z,4.60
2023-01-21T12:07:22.234Z,4.60
2023-01-21T12:08:22.245Z,4.70
2023-01-21T12:09:22.211Z,4.10
2023-01-21T12:10:22.201Z,4.10
2023-01-21T12:11:22.203Z,4.10
2023-01-21T12:12:22.519Z,4.10
2023-01-21T12:13:22.194Z,4.10
2023-01-21T12:14:22.172Z,4.20
2023-01-21T12:15:22.151Z,4.50
2023-01-21T12:16:22.223Z,4.30
2023-01-21T12:17:22.221Z,4.20
2023-01-21T12:18:22.110Z,4.40
2023-01-21T12:19:22.130Z,4.50
2023-01-21T12:20:22.112Z,3.90
2023-01-21T12:21:22.086Z,3.70
2023-01-21T12:22:22.088Z,4.60
2023-01-21T12:23:22.083Z,4.10
2023-01-21T12:24:22.081Z,4.20
2023-01-21T12:25:22.032Z,3.80
2023-01-21T12:26:22.027Z,3.90
2023-01-21T12:27:22.007Z,3.90
2023-01-21T12:28:22.016Z,3.60
2023-01-21T12:29:22.014Z,3.80
2023-01-21T12:30:22.007Z,4.20
2023-01-21T12:31:22.102Z,4.30
2023-01-21T12:32:23.627Z,3.60
2023-01-21T12:33:21.984Z,4.00
2023-01-21T12:34:21.940Z,3.90
2023-01-21T12:35:21.950Z,4.00
2023-01-21T12:36:21.920Z,4.40
2023-01-21T12:37:21.901Z,4.00
2023-01-21T12:38:21.895Z,4.10
2023-01-21T12:39:21.886Z,4.50
2023-01-21T12:40:21.867Z,3.80
2023-01-21T12:41:21.912Z,3.70
2023-01-21T12:42:21.864Z,3.80
2023-01-21T12:43:21.821Z,3.80
2023-01-21T12:44:21.905Z,6.60
2023-01-21T12:45:21.807Z,4.00
2023-01-21T12:46:21.851Z,5.50
2023-01-21T12:47:21.784Z,4.10
2023-01-21T12:48:21.768Z,4.30
2023-01-21T12:49:21.751Z,4.40
2023-01-21T12:50:21.752Z,4.30
2023-01-21T12:51:21.828Z,4.50
2023-01-21T12:52:21.767Z,4.30
2023-01-21T12:53:21.726Z,4.30
2023-01-21T12:54:21.720Z,4.00
2023-01-21T12:55:21.716Z,4.00
2023-01-21T12:56:21.699Z,3.70
2023-01-21T12:57:21.803Z,3.30
2023-01-21T12:58:21.653Z,3.60
2023-01-21T12:59:21.645Z,3.60